createdAt,value
2023-02-03T00:02:11.630Z,5.40
2023-02-03T00:07:15.546Z,5.42
2023-02-03T00:12:43.097Z,5.40
2023-02-03T00:17:45.117Z,5.40
2023-02-03T00:22:46.969Z,5.45
2023-02-03T00:27:48.832Z,5.45
2023-02-03T00:32:50.691Z,5.50
2023-02-03T00:37:54.020Z,5.52
2023-02-03T00:42:56.803Z,5.49
2023-02-03T00:47:59.067Z,5.41
2023-02-03T00:53:00.901Z,5.37
2023-02-03T00:58:02.840Z,5.36
2023-02-03T01:03:06.013Z,5.26
2023-02-03T01:08:07.939Z,5.13
2023-02-03T01:13:09.810Z,5.06
2023-02-03T01:18:11.650Z,4.96
2023-02-03T01:23:13.497Z,4.90
2023-02-03T01:28:15.626Z,4.87
2023-02-03T01:33:17.544Z,4.74
2023-02-03T01:38:19.580Z,4.70
2023-02-03T01:43:31.810Z,4.81
2023-02-03T01:48:35.850Z,4.86
2023-02-03T01:53:39.408Z,4.82
2023-02-03T01:58:43.765Z,4.85
2023-02-03T02:03:54.282Z,4.99
2023-02-03T02:08:58.052Z,4.99
2023-02-03T02:14:03.230Z,4.99
2023-02-03T02:19:47.590Z,4.96
2023-02-03T02:25:27.119Z,5.02
2023-02-03T02:31:31.936Z,5.11
2023-02-03T02:37:02.623Z,5.22
2023-02-03T02:42:07.978Z,5.30
2023-02-03T02:47:19.912Z,5.40
2023-02-03T02:52:25.198Z,5.47
2023-02-03T02:57:30.602Z,5.54
2023-02-03T03:02:35.178Z,5.61
2023-02-03T03:07:56.167Z,5.68
2023-02-03T03:13:07.865Z,5.76
2023-02-03T03:18:16.921Z,5.92
2023-02-03T03:23:32.239Z,6.07
2023-02-03T03:29:03.303Z,6.22
2023-02-03T03:34:05.538Z,6.35
2023-02-03T03:39:23.644Z,6.52
2023-02-03T03:44:30.841Z,6.69
2023-02-03T03:49:34.423Z,6.83
2023-02-03T03:54:38.731Z,7.04
2023-02-03T03:59:44.301Z,7.21
2023-02-03T04:04:48.000Z,7.36
2023-02-03T04:09:49.967Z,7.44
2023-02-03T04:14:51.880Z,7.52
2023-02-03T04:19:53.898Z,7.59
2023-02-03T04:24:59.060Z,7.64
2023-02-03T04:30:01.004Z,7.68
2023-02-03T04:35:04.285Z,7.73
2023-02-03T04:40:06.882Z,7.76
2023-02-03T04:45:10.771Z,7.82
2023-02-03T04:50:12.845Z,7.85
2023-02-03T04:55:14.837Z,7.85
2023-02-03T05:00:16.853Z,7.86
2023-02-03T05:05:19.049Z,7.90
2023-02-03T05:10:20.865Z,7.93
2023-02-03T05:15:22.635Z,7.96
2023-02-03T05:20:24.822Z,7.99
2023-02-03T05:25:27.165Z,8.00
2023-02-03T05:30:29.418Z,8.04
2023-02-03T05:35:33.738Z,8.10
2023-02-03T05:40:54.346Z,8.13
2023-02-03T05:46:01.438Z,8.15
2023-02-03T05:51:03.539Z,8.18
2023-02-03T05:56:05.832Z,8.22
2023-02-03T06:01:07.872Z,8.29
2023-02-03T06:06:09.830Z,8.36
2023-02-03T06:11:12.367Z,8.39
2023-02-03T06:16:14.760Z,8.42
2023-02-03T06:21:16.811Z,8.43
2023-02-03T06:26:18.738Z,8.47
2023-02-03T06:31:21.056Z,8.52
2023-02-03T06:36:23.845Z,8.56
2023-02-03T06:41:30.749Z,8.59
2023-02-03T06:46:34.159Z,8.61
2023-02-03T06:51:36.912Z,8.63
2023-02-03T06:56:38.954Z,8.61
2023-02-03T07:01:40.980Z,8.57
2023-02-03T07:06:42.975Z,8.55
2023-02-03T07:11:44.984Z,8.52
2023-02-03T07:16:46.940Z,8.51
2023-02-03T07:21:48.900Z,8.53
2023-02-03T07:26:50.794Z,8.52
2023-02-03T07:31:52.937Z,8.55
2023-02-03T07:36:55.023Z,8.61
2023-02-03T07:41:57.075Z,8.65
2023-02-03T07:46:59.081Z,8.68
2023-02-03T07:52:01.016Z,8.71
2023-02-03T07:57:02.994Z,8.70
2023-02-03T08:02:06.171Z,8.65
2023-02-03T08:07:08.124Z,8.58
2023-02-03T08:12:10.093Z,8.56
2023-02-03T08:17:12.031Z,8.56
2023-02-03T08:22:16.283Z,8.55
2023-02-03T08:27:20.696Z,8.56
2023-02-03T08:32:23.719Z,8.58
2023-02-03T08:37:26.851Z,8.61
2023-02-03T08:42:28.741Z,8.62
2023-02-03T08:47:30.638Z,8.59
2023-02-03T08:52:32.460Z,8.57
2023-02-03T08:57:36.072Z,8.54
2023-02-03T09:02:37.920Z,8.47
2023-02-03T09:07:40.160Z,8.44
2023-02-03T09:12:42.023Z,8.44
2023-02-03T09:17:43.857Z,8.45
2023-02-03T09:22:45.863Z,8.42
2023-02-03T09:27:48.364Z,8.42
2023-02-03T09:32:54.542Z,8.44
2023-02-03T09:37:56.396Z,8.45
2023-02-03T09:43:07.185Z,8.50
2023-02-03T09:48:19.499Z,8.53
2023-02-03T09:53:33.551Z,8.47
2023-02-03T09:58:35.514Z,8.46
2023-02-03T10:03:40.771Z,8.46
2023-02-03T10:09:05.673Z,8.44
2023-02-03T10:14:32.465Z,8.50
2023-02-03T10:20:09.609Z,8.52
2023-02-03T10:25:24.999Z,8.54
2023-02-03T10:30:31.948Z,8.57
2023-02-03T10:35:49.256Z,8.58
2023-02-03T10:40:51.242Z,8.60
2023-02-03T10:45:53.270Z,8.62
2023-02-03T10:50:57.143Z,8.63
2023-02-03T10:56:07.888Z,8.62
2023-02-03T11:01:15.240Z,8.67
2023-02-03T11:06:17.889Z,8.70
2023-02-03T11:11:31.551Z,8.73
2023-02-03T11:16:36.902Z,8.76
2023-02-03T11:21:48.028Z,8.81
2023-02-03T11:26:59.798Z,8.88
2023-02-03T11:32:18.013Z,8.92
2023-02-03T11:37:50.218Z,8.93
2023-02-03T11:42:52.376Z,8.88
2023-02-03T11:48:02.628Z,8.92
2023-02-03T11:53:10.299Z,8.99
2023-02-03T11:58:36.188Z,9.04
2023-02-03T12:03:40.585Z,9.10
2023-02-03T12:08:56.155Z,9.12
2023-02-03T12:14:25.119Z,9.14
2023-02-03T12:19:39.253Z,9.18
2023-02-03T12:25:07.437Z,9.20
2023-02-03T12:30:37.679Z,9.27
2023-02-03T12:35:49.210Z,9.37
2023-02-03T12:40:58.701Z,9.44
2023-02-03T12:46:04.663Z,9.50
2023-02-03T12:51:13.930Z,9.59
2023-02-03T12:56:23.488Z,9.69
2023-02-03T13:01:40.393Z,9.70
2023-02-03T13:07:02.740Z,9.64
2023-02-03T13:12:19.772Z,9.62
2023-02-03T13:17:28.114Z,9.66
2023-02-03T13:22:29.949Z,9.64
2023-02-03T13:27:46.371Z,9.68
2023-02-03T13:33:09.025Z,9.69
2023-02-03T13:38:33.505Z,9.49
2023-02-03T13:43:40.762Z,9.31
2023-02-03T13:48:45.895Z,9.11
2023-02-03T13:53:50.319Z,8.98
2023-02-03T13:59:07.036Z,8.92
2023-02-03T14:04:27.722Z,8.90
2023-02-03T14:09:35.843Z,8.90
2023-02-03T14:14:37.757Z,8.92
2023-02-03T14:19:51.936Z,9.01
2023-02-03T14:24:56.819Z,8.99
2023-02-03T14:30:04.711Z,9.01
2023-02-03T14:35:16.632Z,9.01
2023-02-03T14:40:27.176Z,9.03
2023-02-03T14:45:43.930Z,9.03
2023-02-03T14:51:17.040Z,8.97
2023-02-03T14:57:01.190Z,8.98
2023-02-03T15:02:02.945Z,8.97
2023-02-03T15:07:04.968Z,8.90
2023-02-03T15:12:27.174Z,8.90
2023-02-03T15:17:30.645Z,8.83
2023-02-03T15:22:38.092Z,8.84
2023-02-03T15:27:39.978Z,8.88
2023-02-03T15:32:50.227Z,8.88
2023-02-03T15:37:57.957Z,8.90
2023-02-03T15:42:59.831Z,8.90
2023-02-03T15:48:07.189Z,8.92
2023-02-03T15:53:47.978Z,8.92
2023-02-03T15:58:50.692Z,8.93
2023-02-03T16:03:54.521Z,8.83
2023-02-03T16:08:57.545Z,8.84
2023-02-03T16:14:03.459Z,8.77
2023-02-03T16:19:13.297Z,8.77
2023-02-03T16:24:32.295Z,8.84
2023-02-03T16:29:55.795Z,8.82
2023-02-03T16:35:16.088Z,8.82
2023-02-03T16:40:40.154Z,8.79
2023-02-03T16:46:00.626Z,8.78
2023-02-03T16:51:04.905Z,8.77
2023-02-03T16:56:06.971Z,8.78
2023-02-03T17:01:11.761Z,8.83
2023-02-03T17:06:15.077Z,8.92
2023-02-03T17:11:20.900Z,8.93
2023-02-03T17:16:25.968Z,8.98
2023-02-03T17:21:29.554Z,9.03
2023-02-03T17:26:31.690Z,9.05
2023-02-03T17:31:33.550Z,9.05
2023-02-03T17:36:35.463Z,9.02
2023-02-03T17:57:37.480Z,9.11
2023-02-03T18:02:39.735Z,9.10
2023-02-03T18:07:41.614Z,9.11
2023-02-03T18:12:43.511Z,9.09
2023-02-03T18:17:45.507Z,9.05
2023-02-03T18:22:47.412Z,9.04
2023-02-03T18:27:51.167Z,9.08
2023-02-03T18:32:53.079Z,9.07
2023-02-03T18:37:54.965Z,9.03
2023-02-03T18:42:56.849Z,8.96
2023-02-03T18:47:58.781Z,8.96
2023-02-03T18:53:00.702Z,8.95
2023-02-03T18:58:02.589Z,8.89
2023-02-03T19:03:04.486Z,8.82
2023-02-03T19:08:06.725Z,8.80
2023-02-03T19:13:08.614Z,8.74
2023-02-03T19:18:11.243Z,8.71
2023-02-03T19:23:13.243Z,8.69
2023-02-03T19:28:20.346Z,8.68
2023-02-03T19:33:30.443Z,8.68
2023-02-03T19:38:32.512Z,8.70
2023-02-03T19:43:34.466Z,8.70
2023-02-03T19:48:36.710Z,8.70
2023-02-03T19:53:38.610Z,8.63
2023-02-03T19:58:40.470Z,8.61
2023-02-03T20:03:43.957Z,8.46
2023-02-03T20:08:45.948Z,8.30
2023-02-03T20:13:48.615Z,8.21
2023-02-03T20:18:50.495Z,7.97
2023-02-03T20:23:53.732Z,7.75
2023-02-03T20:28:55.548Z,7.60
2023-02-03T20:33:57.481Z,7.48
2023-02-03T20:38:59.421Z,7.31
2023-02-03T20:44:02.173Z,7.23
2023-02-03T20:49:04.049Z,7.19
2023-02-03T20:54:15.666Z,7.06
2023-02-03T20:59:19.258Z,6.97
2023-02-03T21:04:39.712Z,6.94
2023-02-03T21:09:41.750Z,6.88
2023-02-03T21:14:49.174Z,6.87
2023-02-03T21:19:52.257Z,6.88
2023-02-03T21:24:59.578Z,6.90
2023-02-03T21:30:11.896Z,6.85
2023-02-03T21:35:35.264Z,6.92
2023-02-03T21:40:37.298Z,6.97
2023-02-03T21:45:43.140Z,6.99
2023-02-03T21:50:45.038Z,6.98
2023-02-03T21:55:46.939Z,7.04
2023-02-03T22:00:49.989Z,7.08
2023-02-03T22:05:56.051Z,7.11
2023-02-03T22:10:57.871Z,7.13
2023-02-03T22:15:59.781Z,7.13
2023-02-03T22:21:03.291Z,7.07
2023-02-03T22:26:05.408Z,7.04
2023-02-03T22:31:08.946Z,7.02
2023-02-03T22:36:11.731Z,6.99
2023-02-03T22:41:13.564Z,6.97
2023-02-03T22:46:15.468Z,6.95
2023-02-03T22:51:17.306Z,6.91
2023-02-03T22:56:19.122Z,6.85
2023-02-03T23:01:21.026Z,6.87
2023-02-03T23:06:22.834Z,6.87
2023-02-03T23:11:24.645Z,6.85
2023-02-03T23:16:26.491Z,6.81
2023-02-03T23:21:28.325Z,6.80
2023-02-03T23:26:30.126Z,6.79
2023-02-03T23:31:32.173Z,6.80
2023-02-03T23:36:34.053Z,6.81
2023-02-03T23:41:35.896Z,6.81
2023-02-03T23:46:37.815Z,6.88
2023-02-03T23:51:39.595Z,6.89
2023-02-03T23:56:41.425Z,6.92
